createdAt,value
2022-08-31T00:00:43.322Z,82.40
2022-08-31T00:01:43.400Z,82.50
2022-08-31T00:02:43.321Z,82.70
2022-08-31T00:03:43.315Z,82.70
2022-08-31T00:04:43.337Z,82.10
2022-08-31T00:05:43.277Z,82.04
2022-08-31T00:06:43.301Z,82.84
2022-08-31T00:07:43.271Z,82.40
2022-08-31T00:08:43.258Z,82.24
2022-08-31T00:09:43.251Z,82.50
2022-08-31T00:10:43.622Z,81.59
2022-08-31T00:11:43.270Z,81.90
2022-08-31T00:12:43.215Z,82.30
2022-08-31T00:13:44.213Z,82.10
2022-08-31T00:14:43.207Z,81.59
2022-08-31T00:15:43.216Z,81.49
2022-08-31T00:16:43.311Z,81.59
2022-08-31T00:17:43.181Z,81.59
2022-08-31T00:18:43.175Z,81.84
2022-08-31T00:19:43.170Z,81.84
2022-08-31T00:20:43.159Z,82.44
2022-08-31T00:21:43.180Z,83.28
2022-08-31T00:22:43.141Z,83.39
2022-08-31T00:23:43.139Z,82.98
2022-08-31T00:24:43.126Z,83.48
2022-08-31T00:25:43.118Z,84.03
2022-08-31T00:26:43.145Z,83.72
2022-08-31T00:27:43.099Z,84.53
2022-08-31T00:28:43.088Z,83.72
2022-08-31T00:29:43.082Z,84.43
2022-08-31T00:30:43.078Z,83.42
2022-08-31T00:31:43.209Z,83.93
2022-08-31T00:32:43.063Z,83.62
2022-08-31T00:33:43.051Z,83.22
2022-08-31T00:34:43.041Z,83.72
2022-08-31T00:35:43.031Z,83.22
2022-08-31T00:36:43.053Z,82.42
2022-08-31T00:37:43.009Z,83.18
2022-08-31T00:38:43.007Z,82.88
2022-08-31T00:39:42.996Z,83.83
2022-08-31T00:40:44.943Z,84.94
2022-08-31T00:41:43.012Z,83.72
2022-08-31T00:42:42.970Z,83.32
2022-08-31T00:43:42.966Z,84.03
2022-08-31T00:44:42.957Z,84.13
2022-08-31T00:45:43.021Z,83.72
2022-08-31T00:46:42.974Z,84.43
2022-08-31T00:47:43.098Z,84.03
2022-08-31T00:48:42.919Z,84.43
2022-08-31T00:49:42.909Z,84.23
2022-08-31T00:50:42.898Z,84.43
2022-08-31T00:51:42.936Z,84.63
2022-08-31T00:52:42.892Z,84.83
2022-08-31T00:53:42.883Z,84.27
2022-08-31T00:54:42.869Z,84.43
2022-08-31T00:55:42.873Z,84.23
2022-08-31T00:56:42.875Z,83.46
2022-08-31T00:57:42.885Z,83.83
2022-08-31T00:58:42.838Z,83.93
2022-08-31T00:59:42.827Z,84.07
2022-08-31T01:00:42.864Z,84.13
2022-08-31T01:01:42.847Z,83.62
2022-08-31T01:02:42.831Z,83.52
2022-08-31T01:03:42.795Z,84.07
2022-08-31T01:04:42.788Z,84.13
2022-08-31T01:05:42.783Z,83.93
2022-08-31T01:06:42.770Z,84.23
2022-08-31T01:07:42.804Z,84.03
2022-08-31T01:08:42.755Z,83.42
2022-08-31T01:09:52.694Z,83.93
2022-08-31T01:10:43.736Z,83.62
2022-08-31T01:11:42.732Z,83.42
2022-08-31T01:12:42.749Z,83.62
2022-08-31T01:13:42.712Z,83.72
2022-08-31T01:14:42.709Z,83.62
2022-08-31T01:15:42.740Z,83.93
2022-08-31T01:16:42.790Z,84.23
2022-08-31T01:17:42.708Z,84.03
2022-08-31T01:18:42.714Z,84.33
2022-08-31T01:19:42.666Z,83.83
2022-08-31T01:20:42.718Z,83.52
2022-08-31T01:21:43.649Z,84.13
2022-08-31T01:22:42.666Z,83.52
2022-08-31T01:23:42.634Z,83.62
2022-08-31T01:24:42.623Z,83.83
2022-08-31T01:25:42.613Z,83.42
2022-08-31T01:26:42.604Z,84.23
2022-08-31T01:27:43.633Z,84.43
2022-08-31T01:28:42.588Z,84.43
2022-08-31T01:29:42.584Z,84.43
2022-08-31T01:30:42.607Z,84.53
2022-08-31T01:31:42.635Z,83.93
2022-08-31T01:32:42.583Z,84.43
2022-08-31T01:33:42.546Z,84.33
2022-08-31T01:34:42.550Z,84.57
2022-08-31T01:35:42.595Z,84.77
2022-08-31T01:36:42.548Z,84.97
2022-08-31T01:37:42.603Z,84.88
2022-08-31T01:38:42.517Z,84.97
2022-08-31T01:39:42.509Z,84.88
2022-08-31T01:40:42.573Z,84.77
2022-08-31T01:41:42.491Z,84.88
2022-08-31T01:42:42.516Z,85.17
2022-08-31T01:43:42.496Z,85.17
2022-08-31T01:44:42.482Z,85.48
2022-08-31T01:45:42.461Z,85.48
2022-08-31T01:46:42.522Z,85.48
2022-08-31T01:47:42.470Z,85.28
2022-08-31T01:48:42.430Z,85.28
2022-08-31T01:49:42.421Z,85.08
2022-08-31T01:50:42.416Z,85.28
2022-08-31T01:51:42.414Z,85.58
2022-08-31T01:52:42.452Z,85.28
2022-08-31T01:53:42.662Z,85.58
2022-08-31T01:54:42.383Z,85.98
2022-08-31T01:55:42.385Z,86.18
2022-08-31T01:56:42.370Z,86.13
2022-08-31T01:57:42.393Z,86.63
2022-08-31T01:58:42.386Z,87.78
2022-08-31T01:59:42.347Z,87.27
2022-08-31T02:00:42.367Z,88.18
2022-08-31T02:01:42.454Z,88.28
2022-08-31T02:02:43.142Z,87.88
2022-08-31T02:03:42.317Z,88.08
2022-08-31T02:04:42.302Z,88.08
2022-08-31T02:05:42.299Z,88.18
2022-08-31T02:06:42.298Z,88.08
2022-08-31T02:07:42.316Z,87.38
2022-08-31T02:08:42.273Z,88.39
2022-08-31T02:09:42.409Z,88.28
2022-08-31T02:10:42.282Z,87.78
2022-08-31T02:11:42.249Z,87.94
2022-08-31T02:12:42.270Z,88.18
2022-08-31T02:13:42.229Z,87.54
2022-08-31T02:14:42.224Z,87.94
2022-08-31T02:15:42.219Z,87.84
2022-08-31T02:16:42.234Z,87.54
2022-08-31T02:17:42.234Z,88.14
2022-08-31T02:18:42.196Z,88.14
2022-08-31T02:19:42.217Z,87.84
2022-08-31T02:20:42.181Z,87.98
2022-08-31T02:21:42.170Z,88.08
2022-08-31T02:22:42.187Z,88.18
2022-08-31T02:23:42.155Z,88.08
2022-08-31T02:24:42.143Z,88.18
2022-08-31T02:25:42.141Z,88.32
2022-08-31T02:26:42.131Z,88.63
2022-08-31T02:27:42.160Z,88.08
2022-08-31T02:28:42.111Z,88.63
2022-08-31T02:29:42.110Z,88.18
2022-08-31T02:30:42.095Z,88.79
2022-08-31T02:31:42.133Z,88.48
2022-08-31T02:32:42.119Z,88.79
2022-08-31T02:33:42.068Z,88.59
2022-08-31T02:34:42.284Z,88.59
2022-08-31T02:35:42.105Z,88.59
2022-08-31T02:36:42.038Z,88.59
2022-08-31T02:37:42.028Z,87.88
2022-08-31T02:38:42.065Z,88.48
2022-08-31T02:39:42.017Z,88.79
2022-08-31T02:40:42.036Z,88.48
2022-08-31T02:41:42.001Z,88.48
2022-08-31T02:42:53.315Z,88.48
2022-08-31T02:43:43.056Z,88.99
2022-08-31T02:44:41.976Z,89.39
2022-08-31T02:45:41.973Z,89.19
2022-08-31T02:46:41.986Z,88.59
2022-08-31T02:47:41.951Z,88.99
2022-08-31T02:48:41.970Z,89.29
2022-08-31T02:49:41.943Z,89.39
2022-08-31T02:50:41.927Z,89.23
2022-08-31T02:51:41.914Z,89.19
2022-08-31T02:52:41.908Z,89.39
2022-08-31T02:53:41.932Z,89.39
2022-08-31T02:54:41.896Z,89.50
2022-08-31T02:55:41.884Z,89.70
2022-08-31T02:56:41.877Z,89.94
2022-08-31T02:57:42.124Z,89.43
2022-08-31T02:58:41.892Z,90.34
2022-08-31T02:59:41.863Z,90.14
2022-08-31T03:00:41.842Z,90.34
2022-08-31T03:01:41.863Z,90.34
2022-08-31T03:02:41.842Z,90.45
2022-08-31T03:03:46.485Z,90.75
2022-08-31T03:04:42.828Z,90.55
2022-08-31T03:05:41.808Z,90.55
2022-08-31T03:06:41.802Z,90.55
2022-08-31T03:07:41.791Z,90.49
2022-08-31T03:08:41.813Z,90.34
2022-08-31T03:09:41.773Z,90.55
2022-08-31T03:10:41.755Z,90.34
2022-08-31T03:11:41.756Z,90.45
2022-08-31T03:12:41.778Z,90.45
2022-08-31T03:13:41.771Z,90.34
2022-08-31T03:14:41.729Z,90.14
2022-08-31T03:15:41.763Z,90.34
2022-08-31T03:16:41.732Z,90.85
2022-08-31T03:17:41.711Z,90.55
2022-08-31T03:18:41.806Z,90.75
2022-08-31T03:19:41.751Z,90.75
2022-08-31T03:20:41.686Z,90.95
2022-08-31T03:21:41.675Z,90.14
2022-08-31T03:22:43.583Z,90.55
2022-08-31T03:23:41.686Z,90.99
2022-08-31T03:24:41.652Z,91.09
2022-08-31T03:25:41.626Z,91.15
2022-08-31T03:26:42.634Z,91.15
2022-08-31T03:27:41.623Z,90.95
2022-08-31T03:28:41.643Z,91.05
2022-08-31T03:29:41.604Z,91.05
2022-08-31T03:30:41.618Z,91.15
2022-08-31T03:31:41.598Z,91.05
2022-08-31T03:32:41.583Z,91.19
2022-08-31T03:33:41.607Z,91.15
2022-08-31T03:34:41.563Z,91.05
2022-08-31T03:35:41.560Z,91.05
2022-08-31T03:36:41.571Z,90.99
2022-08-31T03:37:41.548Z,91.05
2022-08-31T03:38:41.729Z,91.05
2022-08-31T03:39:41.530Z,91.25
2022-08-31T03:40:41.555Z,91.50
2022-08-31T03:41:41.524Z,91.55
2022-08-31T03:42:41.538Z,91.86
2022-08-31T03:43:41.522Z,91.46
2022-08-31T03:44:41.492Z,91.60
2022-08-31T03:45:41.480Z,91.70
2022-08-31T03:46:41.506Z,91.39
2022-08-31T03:47:42.763Z,91.80
2022-08-31T03:48:41.487Z,91.60
2022-08-31T03:49:41.461Z,92.16
2022-08-31T03:50:41.441Z,92.16
2022-08-31T03:51:41.431Z,91.90
2022-08-31T03:52:41.424Z,91.90
2022-08-31T03:53:41.442Z,91.70
2022-08-31T03:54:41.403Z,92.00
2022-08-31T03:55:41.391Z,92.00
2022-08-31T03:56:41.392Z,91.90
2022-08-31T03:57:41.381Z,91.70
2022-08-31T03:58:41.402Z,93.01
2022-08-31T03:59:41.365Z,92.30
2022-08-31T04:00:41.349Z,91.70
2022-08-31T04:01:41.380Z,92.50
2022-08-31T04:02:41.385Z,92.81
2022-08-31T04:03:41.360Z,92.00
2022-08-31T04:04:41.313Z,92.00
2022-08-31T04:05:41.314Z,92.00
2022-08-31T04:06:41.310Z,92.50
2022-08-31T04:07:42.346Z,92.50
2022-08-31T04:08:41.315Z,92.41
2022-08-31T04:09:41.280Z,92.71
2022-08-31T04:10:41.267Z,92.21
2022-08-31T04:11:45.500Z,92.61
2022-08-31T04:12:41.252Z,92.71
2022-08-31T04:13:41.270Z,92.41
2022-08-31T04:14:41.232Z,91.90
2022-08-31T04:15:41.265Z,92.41
2022-08-31T04:16:41.281Z,92.30
2022-08-31T04:17:41.209Z,92.71
2022-08-31T04:18:41.238Z,92.81
2022-08-31T04:19:41.198Z,92.91
2022-08-31T04:20:41.179Z,92.61
2022-08-31T04:21:41.275Z,92.61
2022-08-31T04:22:41.167Z,92.50
2022-08-31T04:23:41.193Z,93.52
2022-08-31T04:24:41.155Z,92.81
2022-08-31T04:25:41.142Z,92.50
2022-08-31T04:26:41.138Z,92.61
2022-08-31T04:27:41.125Z,92.30
2022-08-31T04:28:41.149Z,92.21
2022-08-31T04:29:41.107Z,92.41
2022-08-31T04:30:41.182Z,92.96
2022-08-31T04:31:41.099Z,92.96
2022-08-31T04:32:41.084Z,93.56
2022-08-31T04:33:41.075Z,93.26
2022-08-31T04:34:41.101Z,93.56
2022-08-31T04:35:41.062Z,93.96
2022-08-31T04:36:41.054Z,93.56
2022-08-31T04:37:45.843Z,93.16
2022-08-31T04:38:43.074Z,93.87
2022-08-31T04:39:50.672Z,93.66
2022-08-31T04:40:42.083Z,93.26
2022-08-31T04:41:41.012Z,93.46
2022-08-31T04:42:41.003Z,93.66
2022-08-31T04:43:41.002Z,93.46
2022-08-31T04:44:41.018Z,94.37
2022-08-31T04:45:41.006Z,93.96
2022-08-31T04:46:40.980Z,94.87
2022-08-31T04:47:40.965Z,93.96
2022-08-31T04:48:40.955Z,94.57
2022-08-31T04:49:40.971Z,94.47
2022-08-31T04:50:42.832Z,94.27
2022-08-31T04:51:41.933Z,94.27
2022-08-31T04:52:40.914Z,94.37
2022-08-31T04:53:40.945Z,94.67
2022-08-31T04:54:40.939Z,94.37
2022-08-31T04:55:40.920Z,94.37
2022-08-31T04:56:40.884Z,94.47
2022-08-31T04:57:40.876Z,94.57
2022-08-31T04:58:40.903Z,94.17
2022-08-31T04:59:40.861Z,94.57
2022-08-31T05:00:40.867Z,94.27
2022-08-31T05:01:43.275Z,93.62
2022-08-31T05:02:40.891Z,93.56
2022-08-31T05:03:40.858Z,93.41
2022-08-31T05:04:40.824Z,94.67
2022-08-31T05:05:40.815Z,93.32
2022-08-31T05:06:40.813Z,93.72
2022-08-31T05:07:40.812Z,93.72
2022-08-31T05:08:40.823Z,93.62
2022-08-31T05:09:40.787Z,93.62
2022-08-31T05:10:40.783Z,93.62
2022-08-31T05:11:40.765Z,93.52
2022-08-31T05:12:40.762Z,93.62
2022-08-31T05:13:40.847Z,93.72
2022-08-31T05:14:40.739Z,93.62
2022-08-31T05:15:40.748Z,93.62
2022-08-31T05:16:40.723Z,93.72
2022-08-31T05:17:40.713Z,93.41
2022-08-31T05:18:40.742Z,94.08
2022-08-31T05:19:41.366Z,93.41
2022-08-31T05:20:41.685Z,93.57
2022-08-31T05:21:40.683Z,93.72
2022-08-31T05:22:40.671Z,93.62
2022-08-31T05:23:40.712Z,93.72
2022-08-31T05:24:40.661Z,93.92
2022-08-31T05:25:40.655Z,93.32
2022-08-31T05:26:42.149Z,93.62
2022-08-31T05:27:40.631Z,94.43
2022-08-31T05:28:40.619Z,93.52
2022-08-31T05:29:40.640Z,93.32
2022-08-31T05:30:40.622Z,93.41
2022-08-31T05:31:40.596Z,93.48
2022-08-31T05:32:40.594Z,93.57
2022-08-31T05:33:40.575Z,93.27
2022-08-31T05:34:40.606Z,92.97
2022-08-31T05:35:40.558Z,93.43
2022-08-31T05:36:40.560Z,92.62
2022-08-31T05:37:40.545Z,92.62
2022-08-31T05:38:40.533Z,92.42
2022-08-31T05:39:40.561Z,92.27
2022-08-31T05:40:40.601Z,91.91
2022-08-31T05:41:40.514Z,92.02
2022-08-31T05:42:40.500Z,91.87
2022-08-31T05:43:40.502Z,91.67
2022-08-31T05:44:40.519Z,92.68
2022-08-31T05:45:40.479Z,91.87
2022-08-31T05:46:40.577Z,91.27
2022-08-31T05:47:40.462Z,91.27
2022-08-31T05:48:40.637Z,92.32
2022-08-31T05:49:41.009Z,92.38
2022-08-31T05:50:40.459Z,91.77
2022-08-31T05:51:40.424Z,91.57
2022-08-31T05:52:40.417Z,91.77
2022-08-31T05:53:40.408Z,91.71
2022-08-31T05:54:40.438Z,92.02
2022-08-31T05:55:40.397Z,91.82
2022-08-31T05:56:40.388Z,92.32
2022-08-31T05:57:40.383Z,92.82
2022-08-31T05:58:40.420Z,93.57
2022-08-31T05:59:40.394Z,93.37
2022-08-31T06:00:40.351Z,93.68
2022-08-31T06:01:40.392Z,93.37
2022-08-31T06:02:40.340Z,93.13
2022-08-31T06:03:40.335Z,92.82
2022-08-31T06:04:40.344Z,92.82
2022-08-31T06:05:40.339Z,93.02
2022-08-31T06:06:40.303Z,92.82
2022-08-31T06:07:40.295Z,92.78
2022-08-31T06:08:40.288Z,92.18
2022-08-31T06:09:40.838Z,92.27
2022-08-31T06:10:40.270Z,91.97
2022-08-31T06:11:40.259Z,91.77
2022-08-31T06:12:40.249Z,91.57
2022-08-31T06:13:40.249Z,91.37
2022-08-31T06:14:40.850Z,91.57
2022-08-31T06:15:42.589Z,92.27
2022-08-31T06:16:40.281Z,92.33
2022-08-31T06:17:40.255Z,92.58
2022-08-31T06:18:40.201Z,91.77
2022-08-31T06:19:40.222Z,92.27
2022-08-31T06:20:40.186Z,91.87
2022-08-31T06:21:50.443Z,92.38
2022-08-31T06:22:41.191Z,92.38
2022-08-31T06:23:40.161Z,91.87
2022-08-31T06:24:40.186Z,91.97
2022-08-31T06:25:40.144Z,92.38
2022-08-31T06:26:40.147Z,91.57
2022-08-31T06:27:40.127Z,91.93
2022-08-31T06:28:40.115Z,91.13
2022-08-31T06:29:40.187Z,91.73
2022-08-31T06:30:54.436Z,90.82
2022-08-31T06:31:42.166Z,91.73
2022-08-31T06:32:41.087Z,91.33
2022-08-31T06:33:40.075Z,91.33
2022-08-31T06:34:40.105Z,90.98
2022-08-31T06:35:40.063Z,90.48
2022-08-31T06:36:40.049Z,90.88
2022-08-31T06:37:40.040Z,90.88
2022-08-31T06:38:40.040Z,91.02
2022-08-31T06:39:40.059Z,91.42
2022-08-31T06:40:40.141Z,91.02
2022-08-31T06:41:40.015Z,91.02
2022-08-31T06:42:40.013Z,90.82
2022-08-31T06:43:39.993Z,91.53
2022-08-31T06:44:40.027Z,90.88
2022-08-31T06:45:39.992Z,91.28
2022-08-31T06:46:40.021Z,91.22
2022-08-31T06:47:39.967Z,91.22
2022-08-31T06:48:39.954Z,90.97
2022-08-31T06:49:39.985Z,92.58
2022-08-31T06:50:39.941Z,91.67
2022-08-31T06:51:39.935Z,91.67
2022-08-31T06:52:39.930Z,92.33
2022-08-31T06:53:39.916Z,91.83
2022-08-31T06:54:39.943Z,91.38
2022-08-31T06:55:39.931Z,90.98
2022-08-31T06:56:39.898Z,90.58
2022-08-31T06:57:39.892Z,90.07
2022-08-31T06:58:39.877Z,90.94
2022-08-31T06:59:39.896Z,90.28
2022-08-31T07:00:39.860Z,90.37
2022-08-31T07:01:39.934Z,90.28
2022-08-31T07:02:39.876Z,90.28
2022-08-31T07:03:39.837Z,90.78
2022-08-31T07:04:39.877Z,91.18
2022-08-31T07:05:39.830Z,90.78
2022-08-31T07:06:39.823Z,90.82
2022-08-31T07:07:39.802Z,91.02
2022-08-31T07:08:39.788Z,90.78
2022-08-31T07:09:39.816Z,90.78
2022-08-31T07:10:39.779Z,90.78
2022-08-31T07:11:43.691Z,91.18
2022-08-31T07:12:40.756Z,91.38
2022-08-31T07:13:39.753Z,90.88
2022-08-31T07:14:39.774Z,90.37
2022-08-31T07:15:39.743Z,90.48
2022-08-31T07:16:39.765Z,90.17
2022-08-31T07:17:39.724Z,90.48
2022-08-31T07:18:39.707Z,90.37
2022-08-31T07:19:44.782Z,90.48
2022-08-31T07:20:40.693Z,90.17
2022-08-31T07:21:39.684Z,90.48
2022-08-31T07:22:39.678Z,90.28
2022-08-31T07:23:39.668Z,90.64
2022-08-31T07:24:39.692Z,89.73
2022-08-31T07:25:39.659Z,89.12
2022-08-31T07:26:39.652Z,89.03
2022-08-31T07:27:39.644Z,90.28
2022-08-31T07:28:39.630Z,90.03
2022-08-31T07:29:39.662Z,89.57
2022-08-31T07:30:39.657Z,89.57
2022-08-31T07:31:39.613Z,89.83
2022-08-31T07:32:39.594Z,89.79
2022-08-31T07:33:39.589Z,88.98
2022-08-31T07:34:39.612Z,88.18
2022-08-31T07:35:39.566Z,88.28
2022-08-31T07:36:39.572Z,88.18
2022-08-31T07:37:39.558Z,88.28
2022-08-31T07:38:39.547Z,87.87
2022-08-31T07:39:39.572Z,88.28
2022-08-31T07:40:39.604Z,88.23
2022-08-31T07:41:39.525Z,87.93
2022-08-31T07:42:39.512Z,87.93
2022-08-31T07:43:39.508Z,87.53
2022-08-31T07:44:39.526Z,87.53
2022-08-31T07:45:39.678Z,87.99
2022-08-31T07:46:39.481Z,87.19
2022-08-31T07:47:39.465Z,87.73
2022-08-31T07:48:39.471Z,87.67
2022-08-31T07:49:39.456Z,87.69
2022-08-31T07:50:39.469Z,86.38
2022-08-31T07:51:39.435Z,87.53
2022-08-31T07:52:39.428Z,87.79
2022-08-31T07:53:39.426Z,87.49
2022-08-31T07:54:39.408Z,87.39
2022-08-31T07:55:39.429Z,87.08
2022-08-31T07:56:39.396Z,87.85
2022-08-31T07:57:39.383Z,85.90
2022-08-31T07:58:39.374Z,86.34
2022-08-31T07:59:39.369Z,86.20
2022-08-31T08:00:39.382Z,86.04
2022-08-31T08:01:39.381Z,86.65
2022-08-31T08:02:39.391Z,86.14
2022-08-31T08:03:39.329Z,87.45
2022-08-31T08:04:39.325Z,86.28
2022-08-31T08:05:39.353Z,87.49
2022-08-31T08:06:39.336Z,85.84
2022-08-31T08:07:39.297Z,86.44
2022-08-31T08:08:39.292Z,85.80
2022-08-31T08:09:39.272Z,84.69
2022-08-31T08:10:39.300Z,85.39
2022-08-31T08:11:39.259Z,85.30
2022-08-31T08:12:39.254Z,84.80
2022-08-31T08:13:39.251Z,84.59
2022-08-31T08:14:39.243Z,84.63
2022-08-31T08:15:40.685Z,85.74
2022-08-31T08:16:39.319Z,86.14
2022-08-31T08:17:39.210Z,86.04
2022-08-31T08:18:39.206Z,85.74
2022-08-31T08:19:39.200Z,84.80
2022-08-31T08:20:39.400Z,84.69
2022-08-31T08:21:39.174Z,84.89
2022-08-31T08:22:51.588Z,84.89
2022-08-31T08:23:41.168Z,83.95
2022-08-31T08:24:39.157Z,83.95
2022-08-31T08:25:39.177Z,84.15
2022-08-31T08:26:39.132Z,83.41
2022-08-31T08:27:39.125Z,83.71
2022-08-31T08:28:40.560Z,83.51
2022-08-31T08:29:40.111Z,83.15
2022-08-31T08:30:39.125Z,83.55
2022-08-31T08:31:39.180Z,83.01
2022-08-31T08:32:39.082Z,82.46
2022-08-31T08:33:39.078Z,81.76
2022-08-31T08:34:39.071Z,81.76
2022-08-31T08:35:39.095Z,81.12
2022-08-31T08:36:39.057Z,81.59
2022-08-31T08:37:57.393Z,80.68
2022-08-31T08:38:41.042Z,80.88
2022-08-31T08:39:39.030Z,80.54
2022-08-31T08:40:39.135Z,80.54
2022-08-31T08:41:39.015Z,80.58
2022-08-31T08:42:39.001Z,79.14
2022-08-31T08:43:38.994Z,80.15
2022-08-31T08:44:38.994Z,78.56
2022-08-31T08:45:39.049Z,77.03
2022-08-31T08:46:39.030Z,76.29
2022-08-31T08:47:39.343Z,76.83
2022-08-31T08:48:38.962Z,77.93
2022-08-31T08:49:38.946Z,77.63
2022-08-31T08:50:38.973Z,77.93
2022-08-31T08:51:38.941Z,77.33
2022-08-31T08:52:38.921Z,77.39
2022-08-31T08:53:38.916Z,75.89
2022-08-31T08:54:38.959Z,75.89
2022-08-31T08:55:38.947Z,75.99
2022-08-31T08:56:38.896Z,77.63
2022-08-31T08:57:38.888Z,78.10
2022-08-31T08:58:38.877Z,78.03
2022-08-31T08:59:38.877Z,77.36
2022-08-31T09:00:38.930Z,77.33
2022-08-31T09:01:38.910Z,77.93
2022-08-31T09:02:38.941Z,76.23
2022-08-31T09:03:38.831Z,76.73
2022-08-31T09:04:38.827Z,77.60
2022-08-31T09:05:38.839Z,78.00
2022-08-31T09:06:40.574Z,78.36
2022-08-31T09:07:39.797Z,78.27
2022-08-31T09:08:38.800Z,78.10
2022-08-31T09:09:38.781Z,78.41
2022-08-31T09:10:38.799Z,77.70
2022-08-31T09:11:38.762Z,78.00
2022-08-31T09:12:38.758Z,78.47
2022-08-31T09:13:38.751Z,76.59
2022-08-31T09:14:38.734Z,75.93
2022-08-31T09:15:38.838Z,76.67
2022-08-31T09:16:38.740Z,77.03
2022-08-31T09:17:38.716Z,77.43
2022-08-31T09:18:38.717Z,75.96
2022-08-31T09:19:38.708Z,78.00
2022-08-31T09:20:38.727Z,77.30
2022-08-31T09:21:38.681Z,77.80
2022-08-31T09:22:38.682Z,78.54
2022-08-31T09:23:38.695Z,78.00
2022-08-31T09:24:38.672Z,76.46
2022-08-31T09:25:38.687Z,76.76
2022-08-31T09:26:38.641Z,77.47
2022-08-31T09:27:38.640Z,76.76
2022-08-31T09:28:38.626Z,76.09
2022-08-31T09:29:38.617Z,75.89
2022-08-31T09:30:38.645Z,76.03
2022-08-31T09:31:38.691Z,76.37
2022-08-31T09:32:38.604Z,76.93
2022-08-31T09:33:38.586Z,76.73
2022-08-31T09:34:38.592Z,75.87
2022-08-31T09:35:38.618Z,76.13
2022-08-31T09:36:38.560Z,76.09
2022-08-31T09:37:38.558Z,75.73
2022-08-31T09:38:38.546Z,76.93
2022-08-31T09:39:38.537Z,75.96
2022-08-31T09:40:38.584Z,74.49
2022-08-31T09:41:38.548Z,73.62
2022-08-31T09:42:38.517Z,74.39
2022-08-31T09:43:38.544Z,75.79
2022-08-31T09:44:38.516Z,74.85
2022-08-31T09:45:42.106Z,75.83
2022-08-31T09:46:39.481Z,75.69
2022-08-31T09:47:38.477Z,75.83
2022-08-31T09:48:38.471Z,76.97
2022-08-31T09:49:38.467Z,76.73
2022-08-31T09:50:38.502Z,76.13
2022-08-31T09:51:38.473Z,76.03
2022-08-31T09:52:38.436Z,75.43
2022-08-31T09:53:38.433Z,75.59
2022-08-31T09:54:40.206Z,74.99
2022-08-31T09:55:38.412Z,75.93
2022-08-31T09:56:38.429Z,75.73
2022-08-31T09:57:38.405Z,75.33
2022-08-31T09:58:38.389Z,76.03
2022-08-31T09:59:38.861Z,74.79
2022-08-31T10:00:38.380Z,76.03
2022-08-31T10:01:38.522Z,76.03
2022-08-31T10:02:38.384Z,75.93
2022-08-31T10:03:38.351Z,75.52
2022-08-31T10:04:38.388Z,75.63
2022-08-31T10:05:38.336Z,75.83
2022-08-31T10:06:38.356Z,74.76
2022-08-31T10:07:38.313Z,74.12
2022-08-31T10:08:38.313Z,74.29
2022-08-31T10:09:38.298Z,75.63
2022-08-31T10:10:38.324Z,75.93
2022-08-31T10:11:38.290Z,75.56
2022-08-31T10:12:38.276Z,73.32
2022-08-31T10:13:38.273Z,73.46
2022-08-31T10:14:38.263Z,74.36
2022-08-31T10:15:38.366Z,74.49
2022-08-31T10:16:38.250Z,74.79
2022-08-31T10:17:38.238Z,75.59
2022-08-31T10:18:38.237Z,75.43
2022-08-31T10:19:38.222Z,75.93
2022-08-31T10:20:38.250Z,75.26
2022-08-31T10:21:38.213Z,74.05
2022-08-31T10:22:38.197Z,74.16
2022-08-31T10:23:38.180Z,75.79
2022-08-31T10:24:38.271Z,75.52
2022-08-31T10:25:38.203Z,75.69
2022-08-31T10:26:38.168Z,75.29
2022-08-31T10:27:38.159Z,73.99
2022-08-31T10:28:38.191Z,74.49
2022-08-31T10:29:38.141Z,74.55
2022-08-31T10:30:38.280Z,73.22
2022-08-31T10:31:38.178Z,74.05
2022-08-31T10:32:38.115Z,74.16
2022-08-31T10:33:38.128Z,73.52
2022-08-31T10:34:38.094Z,72.39
2022-08-31T10:35:38.095Z,73.32
2022-08-31T10:36:38.111Z,73.02
2022-08-31T10:37:38.074Z,74.02
2022-08-31T10:38:38.079Z,72.72
2022-08-31T10:39:38.064Z,73.75
2022-08-31T10:40:38.096Z,74.79
2022-08-31T10:41:38.080Z,74.66
2022-08-31T10:42:38.054Z,74.52
2022-08-31T10:43:38.037Z,71.75
2022-08-31T10:44:38.025Z,72.85
2022-08-31T10:45:38.018Z,72.05
2022-08-31T10:46:38.080Z,72.39
2022-08-31T10:47:38.004Z,73.06
2022-08-31T10:48:38.001Z,73.92
2022-08-31T10:49:37.977Z,72.42
2022-08-31T10:50:38.014Z,73.96
2022-08-31T10:51:37.965Z,74.49
2022-08-31T10:52:37.950Z,74.16
2022-08-31T10:53:40.036Z,74.59
2022-08-31T10:54:37.952Z,75.49
2022-08-31T10:55:37.960Z,75.69
2022-08-31T10:56:37.925Z,74.79
2022-08-31T10:57:37.918Z,74.79
2022-08-31T10:58:37.903Z,76.09
2022-08-31T10:59:37.897Z,74.89
2022-08-31T11:00:37.917Z,75.87
2022-08-31T11:01:37.958Z,76.26
2022-08-31T11:02:37.876Z,76.37
2022-08-31T11:03:37.918Z,77.20
2022-08-31T11:04:37.900Z,76.06
2022-08-31T11:05:37.885Z,75.83
2022-08-31T11:06:37.844Z,75.69
2022-08-31T11:07:37.836Z,74.22
2022-08-31T11:08:37.826Z,73.85
2022-08-31T11:09:37.820Z,72.25
2022-08-31T11:10:37.837Z,71.06
2022-08-31T11:11:42.463Z,72.39
2022-08-31T11:12:38.799Z,73.82
2022-08-31T11:13:37.785Z,74.36
2022-08-31T11:14:37.777Z,74.12
2022-08-31T11:15:37.866Z,73.52
2022-08-31T11:16:37.777Z,72.02
2022-08-31T11:17:37.763Z,71.92
2022-08-31T11:18:37.751Z,73.36
2022-08-31T11:19:37.746Z,73.72
2022-08-31T11:20:37.804Z,72.02
2022-08-31T11:21:37.759Z,72.56
2022-08-31T11:22:37.768Z,72.52
2022-08-31T11:23:42.246Z,72.52
2022-08-31T11:24:38.705Z,74.39
2022-08-31T11:25:37.753Z,73.49
2022-08-31T11:26:37.683Z,73.66
2022-08-31T11:27:37.679Z,73.13
2022-08-31T11:28:37.670Z,73.59
2022-08-31T11:29:37.662Z,73.93
2022-08-31T11:30:41.847Z,74.03
2022-08-31T11:31:38.768Z,74.03
2022-08-31T11:32:37.641Z,73.63
2022-08-31T11:33:37.654Z,73.79
2022-08-31T11:34:37.619Z,73.89
2022-08-31T11:35:42.172Z,73.79
2022-08-31T11:36:38.603Z,73.96
2022-08-31T11:37:37.597Z,73.06
2022-08-31T11:38:37.591Z,72.16
2022-08-31T11:39:37.591Z,72.02
2022-08-31T11:40:37.739Z,71.96
2022-08-31T11:41:37.572Z,72.39
2022-08-31T11:42:37.558Z,72.83
2022-08-31T11:43:37.553Z,72.39
2022-08-31T11:44:37.542Z,72.76
2022-08-31T11:45:37.790Z,72.32
2022-08-31T11:46:37.567Z,71.12
2022-08-31T11:47:37.531Z,71.12
2022-08-31T11:48:37.508Z,71.26
2022-08-31T11:49:37.498Z,72.56
2022-08-31T11:50:37.566Z,72.09
2022-08-31T11:51:41.035Z,73.83
2022-08-31T11:52:38.479Z,73.93
2022-08-31T11:53:37.468Z,73.22
2022-08-31T11:54:37.455Z,73.83
2022-08-31T11:55:37.475Z,73.83
2022-08-31T11:56:37.438Z,73.22
2022-08-31T11:57:37.964Z,73.63
2022-08-31T11:58:38.425Z,73.22
2022-08-31T11:59:37.432Z,73.83
2022-08-31T12:00:37.444Z,73.83
2022-08-31T12:01:37.406Z,72.89
2022-08-31T12:02:37.428Z,72.72
2022-08-31T12:03:37.389Z,72.69
2022-08-31T12:04:37.373Z,71.59
2022-08-31T12:05:37.586Z,72.23
2022-08-31T12:06:37.365Z,72.92
2022-08-31T12:07:37.346Z,72.92
2022-08-31T12:08:37.341Z,72.63
2022-08-31T12:09:37.331Z,72.19
2022-08-31T12:10:37.363Z,72.29
2022-08-31T12:11:37.315Z,72.72
2022-08-31T12:12:37.306Z,72.63
2022-08-31T12:13:37.302Z,72.92
2022-08-31T12:14:37.278Z,72.92
2022-08-31T12:15:38.371Z,72.03
2022-08-31T12:16:37.272Z,72.26
2022-08-31T12:17:37.265Z,73.33
2022-08-31T12:18:37.261Z,72.63
2022-08-31T12:19:37.253Z,72.33
2022-08-31T12:20:37.304Z,72.42
2022-08-31T12:21:37.238Z,72.33
2022-08-31T12:22:37.219Z,72.53
2022-08-31T12:23:37.223Z,72.13
2022-08-31T12:24:37.197Z,72.33
2022-08-31T12:25:37.232Z,71.53
2022-08-31T12:26:40.678Z,72.83
2022-08-31T12:27:38.180Z,71.33
2022-08-31T12:28:37.170Z,72.03
2022-08-31T12:29:37.157Z,73.10
2022-08-31T12:30:37.190Z,72.60
2022-08-31T12:31:37.207Z,72.96
2022-08-31T12:32:37.134Z,72.86
2022-08-31T12:33:37.125Z,72.42
2022-08-31T12:34:37.113Z,72.23
2022-08-31T12:35:37.152Z,72.56
2022-08-31T12:36:37.103Z,72.66
2022-08-31T12:37:37.089Z,72.56
2022-08-31T12:38:37.086Z,72.66
2022-08-31T12:39:37.076Z,72.80
2022-08-31T12:40:37.115Z,73.00
2022-08-31T12:41:37.060Z,73.30
2022-08-31T12:42:37.046Z,73.16
2022-08-31T12:43:37.036Z,72.89
2022-08-31T12:44:37.035Z,72.80
2022-08-31T12:45:37.058Z,74.20
2022-08-31T12:46:37.118Z,74.13
2022-08-31T12:47:37.010Z,73.10
2022-08-31T12:48:37.003Z,72.69
2022-08-31T12:49:36.993Z,72.69
2022-08-31T12:50:37.022Z,74.00
2022-08-31T12:51:36.980Z,72.86
2022-08-31T12:52:36.975Z,72.96